sensor_id;sensor_type;location;lat;lon;timestamp;temperature;humidity
68051;DHT22;54839;51.364;7.246;2023-03-14T00:00:55;10.60;99.90
68051;DHT22;54839;51.364;7.246;2023-03-14T00:03:21;10.60;99.90
68051;DHT22;54839;51.364;7.246;2023-03-14T00:05:46;10.60;99.90
68051;DHT22;54839;51.364;7.246;2023-03-14T00:08:12;10.50;99.90
68051;DHT22;54839;51.364;7.246;2023-03-14T00:10:38;10.40;99.90
68051;DHT22;54839;51.364;7.246;2023-03-14T00:13:03;10.40;99.90
68051;DHT22;54839;51.364;7.246;2023-03-14T00:15:29;10.50;99.90
68051;DHT22;54839;51.364;7.246;2023-03-14T00:17:55;10.50;99.90
68051;DHT22;54839;51.364;7.246;2023-03-14T00:20:20;10.40;99.90
68051;DHT22;54839;51.364;7.246;2023-03-14T00:22:46;10.40;99.90
68051;DHT22;54839;51.364;7.246;2023-03-14T00:25:12;10.40;99.90
68051;DHT22;54839;51.364;7.246;2023-03-14T00:27:37;10.40;99.90
68051;DHT22;54839;51.364;7.246;2023-03-14T00:30:04;10.30;99.90
68051;DHT22;54839;51.364;7.246;2023-03-14T00:32:30;10.30;99.90
68051;DHT22;54839;51.364;7.246;2023-03-14T00:34:56;10.30;99.90
68051;DHT22;54839;51.364;7.246;2023-03-14T00:37:21;10.30;99.90
68051;DHT22;54839;51.364;7.246;2023-03-14T00:39:47;10.40;99.90
68051;DHT22;54839;51.364;7.246;2023-03-14T00:42:13;10.40;99.90
68051;DHT22;54839;51.364;7.246;2023-03-14T00:44:39;10.50;99.90
68051;DHT22;54839;51.364;7.246;2023-03-14T00:47:04;10.60;99.90
68051;DHT22;54839;51.364;7.246;2023-03-14T00:49:30;10.70;99.90
68051;DHT22;54839;51.364;7.246;2023-03-14T00:51:55;10.60;99.90
68051;DHT22;54839;51.364;7.246;2023-03-14T00:54:21;10.60;99.90
68051;DHT22;54839;51.364;7.246;2023-03-14T00:56:47;10.60;99.90
68051;DHT22;54839;51.364;7.246;2023-03-14T00:59:12;10.70;99.90
68051;DHT22;54839;51.364;7.246;2023-03-14T01:01:39;10.70;99.90
68051;DHT22;54839;51.364;7.246;2023-03-14T01:04:05;10.70;99.90
68051;DHT22;54839;51.364;7.246;2023-03-14T01:06:30;10.80;99.90
68051;DHT22;54839;51.364;7.246;2023-03-14T01:08:57;10.70;99.90
68051;DHT22;54839;51.364;7.246;2023-03-14T01:11:26;10.40;99.90
68051;DHT22;54839;51.364;7.246;2023-03-14T01:13:52;9.80;99.90
68051;DHT22;54839;51.364;7.246;2023-03-14T01:16:19;9.20;99.90
68051;DHT22;54839;51.364;7.246;2023-03-14T01:18:46;8.90;99.90
68051;DHT22;54839;51.364;7.246;2023-03-14T01:21:26;8.60;99.90
68051;DHT22;54839;51.364;7.246;2023-03-14T01:23:54;8.50;99.90
68051;DHT22;54839;51.364;7.246;2023-03-14T01:26:22;8.60;99.90
68051;DHT22;54839;51.364;7.246;2023-03-14T01:28:49;8.70;99.90
68051;DHT22;54839;51.364;7.246;2023-03-14T01:31:15;8.50;99.90
68051;DHT22;54839;51.364;7.246;2023-03-14T01:33:42;8.50;99.90
68051;DHT22;54839;51.364;7.246;2023-03-14T01:36:08;8.40;99.90
68051;DHT22;54839;51.364;7.246;2023-03-14T01:38:35;8.30;99.90
68051;DHT22;54839;51.364;7.246;2023-03-14T01:41:02;8.40;99.90
68051;DHT22;54839;51.364;7.246;2023-03-14T01:43:28;8.30;99.90
68051;DHT22;54839;51.364;7.246;2023-03-14T01:48:40;8.40;99.90
68051;DHT22;54839;51.364;7.246;2023-03-14T01:51:10;8.30;99.90
68051;DHT22;54839;51.364;7.246;2023-03-14T01:53:37;8.30;99.90
68051;DHT22;54839;51.364;7.246;2023-03-14T01:56:04;8.30;99.90
68051;DHT22;54839;51.364;7.246;2023-03-14T01:58:32;8.20;99.90
68051;DHT22;54839;51.364;7.246;2023-03-14T02:01:00;8.30;99.90
68051;DHT22;54839;51.364;7.246;2023-03-14T02:03:27;8.20;99.90
68051;DHT22;54839;51.364;7.246;2023-03-14T02:05:57;8.20;99.90
68051;DHT22;54839;51.364;7.246;2023-03-14T02:08:27;8.20;99.90
68051;DHT22;54839;51.364;7.246;2023-03-14T02:10:53;8.20;99.90
68051;DHT22;54839;51.364;7.246;2023-03-14T02:13:19;8.30;99.90
68051;DHT22;54839;51.364;7.246;2023-03-14T02:15:47;8.20;99.90
68051;DHT22;54839;51.364;7.246;2023-03-14T02:18:14;8.30;99.90
68051;DHT22;54839;51.364;7.246;2023-03-14T02:20:48;8.30;99.90
68051;DHT22;54839;51.364;7.246;2023-03-14T02:23:24;8.40;99.90
68051;DHT22;54839;51.364;7.246;2023-03-14T02:29:14;8.50;99.90
68051;DHT22;54839;51.364;7.246;2023-03-14T02:31:40;8.60;99.90
68051;DHT22;54839;51.364;7.246;2023-03-14T02:34:06;8.80;99.90
68051;DHT22;54839;51.364;7.246;2023-03-14T02:36:32;8.70;99.90
68051;DHT22;54839;51.364;7.246;2023-03-14T02:39:11;8.90;99.90
68051;DHT22;54839;51.364;7.246;2023-03-14T02:41:37;8.90;99.90
68051;DHT22;54839;51.364;7.246;2023-03-14T02:44:03;9.00;99.90
68051;DHT22;54839;51.364;7.246;2023-03-14T02:46:29;8.90;99.90
68051;DHT22;54839;51.364;7.246;2023-03-14T02:48:58;8.80;99.90
68051;DHT22;54839;51.364;7.246;2023-03-14T02:51:27;8.80;99.90
68051;DHT22;54839;51.364;7.246;2023-03-14T02:53:53;8.90;99.90
68051;DHT22;54839;51.364;7.246;2023-03-14T02:56:19;8.90;99.90
68051;DHT22;54839;51.364;7.246;2023-03-14T02:58:45;9.00;99.90
68051;DHT22;54839;51.364;7.246;2023-03-14T03:01:10;9.00;99.90
68051;DHT22;54839;51.364;7.246;2023-03-14T03:03:36;9.00;99.90
68051;DHT22;54839;51.364;7.246;2023-03-14T03:06:02;9.00;99.90
68051;DHT22;54839;51.364;7.246;2023-03-14T03:08:28;9.00;99.90
68051;DHT22;54839;51.364;7.246;2023-03-14T03:10:54;9.00;99.90
68051;DHT22;54839;51.364;7.246;2023-03-14T03:13:21;9.10;99.90
68051;DHT22;54839;51.364;7.246;2023-03-14T03:15:47;9.00;99.90
68051;DHT22;54839;51.364;7.246;2023-03-14T03:18:12;9.10;99.90
68051;DHT22;54839;51.364;7.246;2023-03-14T03:20:38;9.00;99.90
68051;DHT22;54839;51.364;7.246;2023-03-14T03:23:04;9.10;99.90
68051;DHT22;54839;51.364;7.246;2023-03-14T03:25:30;9.00;99.90
68051;DHT22;54839;51.364;7.246;2023-03-14T03:27:56;9.00;99.90
68051;DHT22;54839;51.364;7.246;2023-03-14T03:30:21;9.10;99.90
68051;DHT22;54839;51.364;7.246;2023-03-14T03:32:47;9.10;99.90
68051;DHT22;54839;51.364;7.246;2023-03-14T03:35:13;9.10;99.90
68051;DHT22;54839;51.364;7.246;2023-03-14T03:37:39;9.20;99.90
68051;DHT22;54839;51.364;7.246;2023-03-14T03:40:05;9.20;99.90
68051;DHT22;54839;51.364;7.246;2023-03-14T03:42:32;9.20;99.90
68051;DHT22;54839;51.364;7.246;2023-03-14T03:44:59;9.10;99.90
68051;DHT22;54839;51.364;7.246;2023-03-14T03:47:25;9.00;99.90
68051;DHT22;54839;51.364;7.246;2023-03-14T03:49:50;9.00;99.90
68051;DHT22;54839;51.364;7.246;2023-03-14T03:52:16;8.90;99.90
68051;DHT22;54839;51.364;7.246;2023-03-14T03:54:41;8.90;99.90
68051;DHT22;54839;51.364;7.246;2023-03-14T03:57:07;8.70;99.90
68051;DHT22;54839;51.364;7.246;2023-03-14T03:59:33;8.80;99.90
68051;DHT22;54839;51.364;7.246;2023-03-14T04:01:58;8.70;99.90
68051;DHT22;54839;51.364;7.246;2023-03-14T04:04:24;8.80;99.90
68051;DHT22;54839;51.364;7.246;2023-03-14T04:06:49;8.80;99.90
68051;DHT22;54839;51.364;7.246;2023-03-14T04:09:15;8.70;99.90
68051;DHT22;54839;51.364;7.246;2023-03-14T04:11:40;8.50;99.90
68051;DHT22;54839;51.364;7.246;2023-03-14T04:14:06;8.40;99.90
68051;DHT22;54839;51.364;7.246;2023-03-14T04:16:32;8.30;99.90
68051;DHT22;54839;51.364;7.246;2023-03-14T04:18:58;8.10;99.90
68051;DHT22;54839;51.364;7.246;2023-03-14T04:21:23;8.00;99.90
68051;DHT22;54839;51.364;7.246;2023-03-14T04:23:49;7.90;99.90
68051;DHT22;54839;51.364;7.246;2023-03-14T04:26:15;8.00;99.90
68051;DHT22;54839;51.364;7.246;2023-03-14T04:28:41;8.00;99.90
68051;DHT22;54839;51.364;7.246;2023-03-14T04:31:12;7.90;99.90
68051;DHT22;54839;51.364;7.246;2023-03-14T04:33:38;8.00;99.90
68051;DHT22;54839;51.364;7.246;2023-03-14T04:36:05;8.00;99.90
68051;DHT22;54839;51.364;7.246;2023-03-14T04:38:31;8.00;99.90
68051;DHT22;54839;51.364;7.246;2023-03-14T04:40:57;8.10;99.90
68051;DHT22;54839;51.364;7.246;2023-03-14T04:43:22;8.10;99.90
68051;DHT22;54839;51.364;7.246;2023-03-14T04:45:48;8.00;99.90
68051;DHT22;54839;51.364;7.246;2023-03-14T04:48:14;8.00;99.90
68051;DHT22;54839;51.364;7.246;2023-03-14T04:50:39;8.00;99.90
68051;DHT22;54839;51.364;7.246;2023-03-14T04:53:05;8.00;99.90
68051;DHT22;54839;51.364;7.246;2023-03-14T04:55:31;8.00;99.90
68051;DHT22;54839;51.364;7.246;2023-03-14T04:57:58;8.00;99.90
68051;DHT22;54839;51.364;7.246;2023-03-14T05:00:23;8.20;99.90
68051;DHT22;54839;51.364;7.246;2023-03-14T05:02:49;8.10;99.90
68051;DHT22;54839;51.364;7.246;2023-03-14T05:05:14;8.20;99.90
68051;DHT22;54839;51.364;7.246;2023-03-14T05:07:40;8.20;99.90
68051;DHT22;54839;51.364;7.246;2023-03-14T05:10:06;8.20;99.90
68051;DHT22;54839;51.364;7.246;2023-03-14T05:12:32;8.20;99.90
68051;DHT22;54839;51.364;7.246;2023-03-14T05:14:57;8.20;99.90
68051;DHT22;54839;51.364;7.246;2023-03-14T05:17:23;8.30;99.90
68051;DHT22;54839;51.364;7.246;2023-03-14T05:19:48;8.30;99.90
68051;DHT22;54839;51.364;7.246;2023-03-14T05:22:14;8.20;99.90
68051;DHT22;54839;51.364;7.246;2023-03-14T05:24:39;8.20;99.90
68051;DHT22;54839;51.364;7.246;2023-03-14T05:27:05;8.20;99.90
68051;DHT22;54839;51.364;7.246;2023-03-14T05:29:30;8.30;99.90
68051;DHT22;54839;51.364;7.246;2023-03-14T05:31:56;8.30;99.90
68051;DHT22;54839;51.364;7.246;2023-03-14T05:34:21;8.20;99.90
68051;DHT22;54839;51.364;7.246;2023-03-14T05:36:47;8.20;99.90
68051;DHT22;54839;51.364;7.246;2023-03-14T05:39:12;8.20;99.90
68051;DHT22;54839;51.364;7.246;2023-03-14T05:41:38;8.30;99.90
68051;DHT22;54839;51.364;7.246;2023-03-14T05:44:04;8.30;99.90
68051;DHT22;54839;51.364;7.246;2023-03-14T05:46:30;8.30;99.90
68051;DHT22;54839;51.364;7.246;2023-03-14T05:48:57;8.30;99.90
68051;DHT22;54839;51.364;7.246;2023-03-14T05:51:23;8.30;99.90
68051;DHT22;54839;51.364;7.246;2023-03-14T05:53:48;8.40;99.90
68051;DHT22;54839;51.364;7.246;2023-03-14T05:56:14;8.30;99.90
68051;DHT22;54839;51.364;7.246;2023-03-14T05:58:39;8.40;99.90
68051;DHT22;54839;51.364;7.246;2023-03-14T06:01:06;8.30;99.90
68051;DHT22;54839;51.364;7.246;2023-03-14T06:03:32;8.40;99.90
68051;DHT22;54839;51.364;7.246;2023-03-14T06:05:58;8.30;99.90
68051;DHT22;54839;51.364;7.246;2023-03-14T06:08:23;8.40;99.90
68051;DHT22;54839;51.364;7.246;2023-03-14T06:10:50;8.40;99.90
68051;DHT22;54839;51.364;7.246;2023-03-14T06:13:16;8.40;99.90
68051;DHT22;54839;51.364;7.246;2023-03-14T06:15:42;8.40;99.90
68051;DHT22;54839;51.364;7.246;2023-03-14T06:18:07;8.40;99.90
68051;DHT22;54839;51.364;7.246;2023-03-14T06:20:35;8.40;99.90
68051;DHT22;54839;51.364;7.246;2023-03-14T06:23:00;8.40;99.90
68051;DHT22;54839;51.364;7.246;2023-03-14T06:25:26;8.50;99.90
68051;DHT22;54839;51.364;7.246;2023-03-14T06:27:51;8.50;99.90
68051;DHT22;54839;51.364;7.246;2023-03-14T06:30:17;8.50;99.90
68051;DHT22;54839;51.364;7.246;2023-03-14T06:32:43;8.50;99.90
68051;DHT22;54839;51.364;7.246;2023-03-14T06:35:08;8.60;99.90
68051;DHT22;54839;51.364;7.246;2023-03-14T06:37:34;8.60;99.90
68051;DHT22;54839;51.364;7.246;2023-03-14T06:40:00;8.70;99.90
68051;DHT22;54839;51.364;7.246;2023-03-14T06:42:25;8.50;99.90
68051;DHT22;54839;51.364;7.246;2023-03-14T06:44:51;8.60;99.90
68051;DHT22;54839;51.364;7.246;2023-03-14T06:47:16;8.50;99.90
68051;DHT22;54839;51.364;7.246;2023-03-14T06:49:42;8.60;99.90
68051;DHT22;54839;51.364;7.246;2023-03-14T06:52:07;8.50;99.90
68051;DHT22;54839;51.364;7.246;2023-03-14T06:54:33;8.50;99.90
68051;DHT22;54839;51.364;7.246;2023-03-14T06:56:59;8.50;99.90
68051;DHT22;54839;51.364;7.246;2023-03-14T06:59:24;8.50;99.90
68051;DHT22;54839;51.364;7.246;2023-03-14T07:01:50;8.70;99.90
68051;DHT22;54839;51.364;7.246;2023-03-14T07:04:16;8.60;99.90
68051;DHT22;54839;51.364;7.246;2023-03-14T07:06:42;8.70;99.90
68051;DHT22;54839;51.364;7.246;2023-03-14T07:09:10;8.70;99.90
68051;DHT22;54839;51.364;7.246;2023-03-14T07:11:36;8.80;99.90
68051;DHT22;54839;51.364;7.246;2023-03-14T07:14:02;8.70;99.90
68051;DHT22;54839;51.364;7.246;2023-03-14T07:16:27;8.70;99.90
68051;DHT22;54839;51.364;7.246;2023-03-14T07:18:56;8.60;99.90
68051;DHT22;54839;51.364;7.246;2023-03-14T07:21:22;8.70;99.90
68051;DHT22;54839;51.364;7.246;2023-03-14T07:23:47;8.80;99.90
68051;DHT22;54839;51.364;7.246;2023-03-14T07:26:13;8.70;99.90
68051;DHT22;54839;51.364;7.246;2023-03-14T07:28:39;8.90;99.90
68051;DHT22;54839;51.364;7.246;2023-03-14T07:31:04;8.90;99.90
68051;DHT22;54839;51.364;7.246;2023-03-14T07:33:30;9.10;99.90
68051;DHT22;54839;51.364;7.246;2023-03-14T07:35:55;9.20;99.90
68051;DHT22;54839;51.364;7.246;2023-03-14T07:38:21;9.30;99.90
68051;DHT22;54839;51.364;7.246;2023-03-14T07:40:47;9.40;99.90
68051;DHT22;54839;51.364;7.246;2023-03-14T07:43:12;9.30;99.90
68051;DHT22;54839;51.364;7.246;2023-03-14T07:45:38;9.30;99.90
68051;DHT22;54839;51.364;7.246;2023-03-14T07:48:03;9.10;99.90
68051;DHT22;54839;51.364;7.246;2023-03-14T07:50:29;8.90;99.90
68051;DHT22;54839;51.364;7.246;2023-03-14T07:52:55;9.00;99.90
68051;DHT22;54839;51.364;7.246;2023-03-14T07:55:20;8.90;99.90
68051;DHT22;54839;51.364;7.246;2023-03-14T07:57:46;8.90;99.90
68051;DHT22;54839;51.364;7.246;2023-03-14T08:00:12;8.90;99.90
68051;DHT22;54839;51.364;7.246;2023-03-14T08:02:40;9.00;99.90
68051;DHT22;54839;51.364;7.246;2023-03-14T08:05:05;9.00;99.90
68051;DHT22;54839;51.364;7.246;2023-03-14T08:07:31;9.10;99.90
68051;DHT22;54839;51.364;7.246;2023-03-14T08:09:56;9.10;99.90
68051;DHT22;54839;51.364;7.246;2023-03-14T08:12:22;9.20;99.90
68051;DHT22;54839;51.364;7.246;2023-03-14T08:14:48;9.10;99.90
68051;DHT22;54839;51.364;7.246;2023-03-14T08:17:13;9.20;99.90
68051;DHT22;54839;51.364;7.246;2023-03-14T08:19:41;9.10;99.90
68051;DHT22;54839;51.364;7.246;2023-03-14T08:22:06;9.10;99.90
68051;DHT22;54839;51.364;7.246;2023-03-14T08:24:32;9.10;99.90
68051;DHT22;54839;51.364;7.246;2023-03-14T08:26:57;9.10;99.90
68051;DHT22;54839;51.364;7.246;2023-03-14T08:29:23;9.10;99.90
68051;DHT22;54839;51.364;7.246;2023-03-14T08:31:49;9.10;99.90
68051;DHT22;54839;51.364;7.246;2023-03-14T08:34:15;9.20;99.90
68051;DHT22;54839;51.364;7.246;2023-03-14T08:36:41;9.20;99.90
68051;DHT22;54839;51.364;7.246;2023-03-14T08:39:06;9.50;99.90
68051;DHT22;54839;51.364;7.246;2023-03-14T08:41:33;9.50;99.90
68051;DHT22;54839;51.364;7.246;2023-03-14T08:44:08;9.70;99.90
68051;DHT22;54839;51.364;7.246;2023-03-14T08:46:34;9.70;99.90
68051;DHT22;54839;51.364;7.246;2023-03-14T08:49:00;9.80;99.90
68051;DHT22;54839;51.364;7.246;2023-03-14T08:51:25;9.90;99.90
68051;DHT22;54839;51.364;7.246;2023-03-14T08:53:51;9.90;99.90
68051;DHT22;54839;51.364;7.246;2023-03-14T08:56:17;10.00;99.90
68051;DHT22;54839;51.364;7.246;2023-03-14T08:58:42;10.10;99.90
68051;DHT22;54839;51.364;7.246;2023-03-14T09:01:09;10.10;99.90
68051;DHT22;54839;51.364;7.246;2023-03-14T09:03:35;10.00;99.90
68051;DHT22;54839;51.364;7.246;2023-03-14T09:06:03;10.10;99.90
68051;DHT22;54839;51.364;7.246;2023-03-14T09:08:29;10.20;99.90
68051;DHT22;54839;51.364;7.246;2023-03-14T09:10:54;10.20;99.90
68051;DHT22;54839;51.364;7.246;2023-03-14T09:13:20;10.20;99.90
68051;DHT22;54839;51.364;7.246;2023-03-14T09:15:53;9.90;99.90
68051;DHT22;54839;51.364;7.246;2023-03-14T09:18:19;9.80;99.90
68051;DHT22;54839;51.364;7.246;2023-03-14T09:20:45;9.70;99.90
68051;DHT22;54839;51.364;7.246;2023-03-14T09:23:11;9.70;99.90
68051;DHT22;54839;51.364;7.246;2023-03-14T09:25:36;9.70;99.90
68051;DHT22;54839;51.364;7.246;2023-03-14T09:28:02;9.70;99.90
68051;DHT22;54839;51.364;7.246;2023-03-14T09:30:28;9.70;99.90
68051;DHT22;54839;51.364;7.246;2023-03-14T09:32:53;9.80;99.90
68051;DHT22;54839;51.364;7.246;2023-03-14T09:35:19;9.70;99.90
68051;DHT22;54839;51.364;7.246;2023-03-14T09:37:45;9.80;99.90
68051;DHT22;54839;51.364;7.246;2023-03-14T09:40:16;9.80;99.90
68051;DHT22;54839;51.364;7.246;2023-03-14T09:42:42;9.60;99.90
68051;DHT22;54839;51.364;7.246;2023-03-14T09:45:17;9.60;99.90
68051;DHT22;54839;51.364;7.246;2023-03-14T09:47:44;9.50;99.90
68051;DHT22;54839;51.364;7.246;2023-03-14T09:50:15;9.40;99.90
68051;DHT22;54839;51.364;7.246;2023-03-14T09:52:44;8.90;99.90
68051;DHT22;54839;51.364;7.246;2023-03-14T09:55:22;8.60;99.90
68051;DHT22;54839;51.364;7.246;2023-03-14T09:57:50;8.30;99.90
68051;DHT22;54839;51.364;7.246;2023-03-14T10:00:21;8.40;99.90
68051;DHT22;54839;51.364;7.246;2023-03-14T10:05:42;8.10;99.90
68051;DHT22;54839;51.364;7.246;2023-03-14T10:08:11;7.90;99.90
68051;DHT22;54839;51.364;7.246;2023-03-14T10:10:37;7.80;99.90
68051;DHT22;54839;51.364;7.246;2023-03-14T10:13:27;7.60;99.90
68051;DHT22;54839;51.364;7.246;2023-03-14T10:16:03;7.40;99.90
68051;DHT22;54839;51.364;7.246;2023-03-14T10:18:30;7.20;99.90
68051;DHT22;54839;51.364;7.246;2023-03-14T10:21:20;7.20;99.90
68051;DHT22;54839;51.364;7.246;2023-03-14T10:23:47;7.30;99.90
68051;DHT22;54839;51.364;7.246;2023-03-14T10:26:15;7.30;99.90
68051;DHT22;54839;51.364;7.246;2023-03-14T10:28:46;7.10;99.90
68051;DHT22;54839;51.364;7.246;2023-03-14T10:31:13;7.10;99.90
68051;DHT22;54839;51.364;7.246;2023-03-14T10:33:39;7.00;99.90
68051;DHT22;54839;51.364;7.246;2023-03-14T10:36:24;7.10;99.90
68051;DHT22;54839;51.364;7.246;2023-03-14T10:38:58;7.10;99.90
68051;DHT22;54839;51.364;7.246;2023-03-14T10:41:32;7.20;99.90
68051;DHT22;54839;51.364;7.246;2023-03-14T10:44:00;7.10;99.90
68051;DHT22;54839;51.364;7.246;2023-03-14T10:46:30;7.00;99.90
68051;DHT22;54839;51.364;7.246;2023-03-14T10:48:56;6.80;99.90
68051;DHT22;54839;51.364;7.246;2023-03-14T10:51:27;6.90;99.90
68051;DHT22;54839;51.364;7.246;2023-03-14T10:53:58;7.00;99.90
68051;DHT22;54839;51.364;7.246;2023-03-14T10:56:25;7.00;99.90
68051;DHT22;54839;51.364;7.246;2023-03-14T10:58:53;7.00;99.90
68051;DHT22;54839;51.364;7.246;2023-03-14T11:01:44;6.90;99.90
68051;DHT22;54839;51.364;7.246;2023-03-14T11:04:28;6.90;99.90
68051;DHT22;54839;51.364;7.246;2023-03-14T11:07:47;6.80;99.90
68051;DHT22;54839;51.364;7.246;2023-03-14T11:10:00;6.70;99.90
68051;DHT22;54839;51.364;7.246;2023-03-14T11:12:39;6.60;99.90
68051;DHT22;54839;51.364;7.246;2023-03-14T11:15:31;6.50;99.90
68051;DHT22;54839;51.364;7.246;2023-03-14T11:20:55;6.40;99.90
68051;DHT22;54839;51.364;7.246;2023-03-14T11:23:32;6.30;99.90
68051;DHT22;54839;51.364;7.246;2023-03-14T11:28:41;6.30;99.90
68051;DHT22;54839;51.364;7.246;2023-03-14T11:33:52;6.70;99.90
68051;DHT22;54839;51.364;7.246;2023-03-14T11:36:29;7.10;99.90
68051;DHT22;54839;51.364;7.246;2023-03-14T11:38:58;7.40;99.90
68051;DHT22;54839;51.364;7.246;2023-03-14T11:41:35;7.50;99.90
68051;DHT22;54839;51.364;7.246;2023-03-14T11:44:19;7.40;99.90
68051;DHT22;54839;51.364;7.246;2023-03-14T11:46:52;7.40;99.90
68051;DHT22;54839;51.364;7.246;2023-03-14T11:51:58;7.20;99.90
68051;DHT22;54839;51.364;7.246;2023-03-14T11:57:12;7.40;99.90
68051;DHT22;54839;51.364;7.246;2023-03-14T12:00:12;7.40;99.90
68051;DHT22;54839;51.364;7.246;2023-03-14T12:02:53;7.30;99.90
68051;DHT22;54839;51.364;7.246;2023-03-14T12:10:59;7.00;99.90
68051;DHT22;54839;51.364;7.246;2023-03-14T12:13:32;7.00;99.90
68051;DHT22;54839;51.364;7.246;2023-03-14T12:16:00;6.90;99.90
68051;DHT22;54839;51.364;7.246;2023-03-14T12:18:31;6.60;99.90
68051;DHT22;54839;51.364;7.246;2023-03-14T12:21:03;6.40;99.90
68051;DHT22;54839;51.364;7.246;2023-03-14T12:28:42;6.60;99.90
68051;DHT22;54839;51.364;7.246;2023-03-14T12:39:21;6.70;99.90
68051;DHT22;54839;51.364;7.246;2023-03-14T12:42:05;7.00;99.90
68051;DHT22;54839;51.364;7.246;2023-03-14T12:47:47;8.00;99.90
68051;DHT22;54839;51.364;7.246;2023-03-14T12:49:54;8.40;99.90
68051;DHT22;54839;51.364;7.246;2023-03-14T12:52:43;8.50;99.90
68051;DHT22;54839;51.364;7.246;2023-03-14T13:00:41;8.70;99.90
68051;DHT22;54839;51.364;7.246;2023-03-14T13:03:19;8.70;99.90
68051;DHT22;54839;51.364;7.246;2023-03-14T13:05:56;8.60;99.90
68051;DHT22;54839;51.364;7.246;2023-03-14T13:08:41;8.50;99.90
68051;DHT22;54839;51.364;7.246;2023-03-14T13:11:15;8.40;99.90
68051;DHT22;54839;51.364;7.246;2023-03-14T13:13:47;8.00;99.90
68051;DHT22;54839;51.364;7.246;2023-03-14T13:16:19;7.80;99.90
68051;DHT22;54839;51.364;7.246;2023-03-14T13:18:47;7.60;99.90
68051;DHT22;54839;51.364;7.246;2023-03-14T13:21:21;7.20;99.90
68051;DHT22;54839;51.364;7.246;2023-03-14T13:24:02;6.60;99.90
68051;DHT22;54839;51.364;7.246;2023-03-14T13:26:40;6.30;99.90
68051;DHT22;54839;51.364;7.246;2023-03-14T13:29:31;6.40;99.90
68051;DHT22;54839;51.364;7.246;2023-03-14T13:31:59;6.30;99.90
68051;DHT22;54839;51.364;7.246;2023-03-14T13:34:30;6.20;99.90
68051;DHT22;54839;51.364;7.246;2023-03-14T13:36:56;6.30;99.90
68051;DHT22;54839;51.364;7.246;2023-03-14T13:39:24;6.90;99.90
68051;DHT22;54839;51.364;7.246;2023-03-14T13:41:57;7.30;99.90
68051;DHT22;54839;51.364;7.246;2023-03-14T13:44:36;8.00;99.90
68051;DHT22;54839;51.364;7.246;2023-03-14T13:47:09;8.20;99.90
68051;DHT22;54839;51.364;7.246;2023-03-14T13:49:36;8.00;99.90
68051;DHT22;54839;51.364;7.246;2023-03-14T13:52:03;7.80;99.90
68051;DHT22;54839;51.364;7.246;2023-03-14T13:54:31;7.40;99.90
68051;DHT22;54839;51.364;7.246;2023-03-14T13:57:01;6.90;99.90
68051;DHT22;54839;51.364;7.246;2023-03-14T13:59:29;6.80;99.90
68051;DHT22;54839;51.364;7.246;2023-03-14T14:01:56;7.00;99.90
68051;DHT22;54839;51.364;7.246;2023-03-14T14:04:24;7.20;99.90
68051;DHT22;54839;51.364;7.246;2023-03-14T14:06:54;7.50;99.90
68051;DHT22;54839;51.364;7.246;2023-03-14T14:09:27;8.20;99.90
68051;DHT22;54839;51.364;7.246;2023-03-14T14:12:15;8.20;99.90
68051;DHT22;54839;51.364;7.246;2023-03-14T14:14:55;9.40;99.90
68051;DHT22;54839;51.364;7.246;2023-03-14T14:17:28;12.50;99.90
68051;DHT22;54839;51.364;7.246;2023-03-14T14:19:56;16.40;99.90
68051;DHT22;54839;51.364;7.246;2023-03-14T14:22:22;17.30;99.90
68051;DHT22;54839;51.364;7.246;2023-03-14T14:24:48;18.80;99.90
68051;DHT22;54839;51.364;7.246;2023-03-14T14:27:23;16.80;99.90
68051;DHT22;54839;51.364;7.246;2023-03-14T14:30:06;14.90;99.90
68051;DHT22;54839;51.364;7.246;2023-03-14T14:32:43;17.00;99.90
68051;DHT22;54839;51.364;7.246;2023-03-14T14:35:32;17.20;99.90
68051;DHT22;54839;51.364;7.246;2023-03-14T14:37:59;15.80;99.90
68051;DHT22;54839;51.364;7.246;2023-03-14T14:40:27;17.10;99.90
68051;DHT22;54839;51.364;7.246;2023-03-14T14:42:54;17.10;99.20
68051;DHT22;54839;51.364;7.246;2023-03-14T14:45:22;17.40;97.40
68051;DHT22;54839;51.364;7.246;2023-03-14T14:52:47;15.60;96.50
68051;DHT22;54839;51.364;7.246;2023-03-14T14:55:18;16.20;97.00
68051;DHT22;54839;51.364;7.246;2023-03-14T14:57:53;17.00;95.40
68051;DHT22;54839;51.364;7.246;2023-03-14T15:00:24;16.90;93.00
68051;DHT22;54839;51.364;7.246;2023-03-14T15:02:53;16.90;92.20
68051;DHT22;54839;51.364;7.246;2023-03-14T15:05:22;16.20;88.20
68051;DHT22;54839;51.364;7.246;2023-03-14T15:07:48;16.00;90.80
68051;DHT22;54839;51.364;7.246;2023-03-14T15:10:19;15.50;88.00
68051;DHT22;54839;51.364;7.246;2023-03-14T15:12:45;15.50;89.60
68051;DHT22;54839;51.364;7.246;2023-03-14T15:15:13;15.00;82.30
68051;DHT22;54839;51.364;7.246;2023-03-14T15:17:39;14.20;84.60
68051;DHT22;54839;51.364;7.246;2023-03-14T15:20:06;13.40;88.50
68051;DHT22;54839;51.364;7.246;2023-03-14T15:22:35;13.50;87.40
68051;DHT22;54839;51.364;7.246;2023-03-14T15:25:00;12.80;84.80
68051;DHT22;54839;51.364;7.246;2023-03-14T15:27:28;12.50;87.80
68051;DHT22;54839;51.364;7.246;2023-03-14T15:29:56;12.90;89.70
68051;DHT22;54839;51.364;7.246;2023-03-14T15:32:21;12.90;87.20
68051;DHT22;54839;51.364;7.246;2023-03-14T15:34:47;12.90;90.30
68051;DHT22;54839;51.364;7.246;2023-03-14T15:37:14;13.10;87.80
68051;DHT22;54839;51.364;7.246;2023-03-14T15:39:41;11.40;87.60
68051;DHT22;54839;51.364;7.246;2023-03-14T15:42:07;11.30;90.90
68051;DHT22;54839;51.364;7.246;2023-03-14T15:44:33;10.70;91.30
68051;DHT22;54839;51.364;7.246;2023-03-14T15:46:58;10.20;93.00
68051;DHT22;54839;51.364;7.246;2023-03-14T15:49:24;10.00;94.20
68051;DHT22;54839;51.364;7.246;2023-03-14T15:51:49;9.90;95.70
68051;DHT22;54839;51.364;7.246;2023-03-14T15:54:15;9.80;96.20
68051;DHT22;54839;51.364;7.246;2023-03-14T15:56:41;9.60;96.20
68051;DHT22;54839;51.364;7.246;2023-03-14T15:59:06;9.20;96.50
68051;DHT22;54839;51.364;7.246;2023-03-14T16:01:32;9.00;96.30
68051;DHT22;54839;51.364;7.246;2023-03-14T16:03:57;8.30;95.50
68051;DHT22;54839;51.364;7.246;2023-03-14T16:06:23;8.40;97.50
68051;DHT22;54839;51.364;7.246;2023-03-14T16:08:49;8.00;95.90
68051;DHT22;54839;51.364;7.246;2023-03-14T16:14:13;7.60;95.80
68051;DHT22;54839;51.364;7.246;2023-03-14T16:16:39;7.70;95.50
68051;DHT22;54839;51.364;7.246;2023-03-14T16:19:06;7.60;95.50
68051;DHT22;54839;51.364;7.246;2023-03-14T16:21:31;7.40;96.10
68051;DHT22;54839;51.364;7.246;2023-03-14T16:23:58;7.50;94.90
68051;DHT22;54839;51.364;7.246;2023-03-14T16:26:25;7.40;95.40
68051;DHT22;54839;51.364;7.246;2023-03-14T16:28:50;7.40;95.80
68051;DHT22;54839;51.364;7.246;2023-03-14T16:31:18;7.40;96.60
68051;DHT22;54839;51.364;7.246;2023-03-14T16:33:45;7.50;96.40
68051;DHT22;54839;51.364;7.246;2023-03-14T16:36:12;7.50;96.20
68051;DHT22;54839;51.364;7.246;2023-03-14T16:38:40;7.20;96.00
68051;DHT22;54839;51.364;7.246;2023-03-14T16:41:10;7.10;95.90
68051;DHT22;54839;51.364;7.246;2023-03-14T16:43:36;7.10;95.30
68051;DHT22;54839;51.364;7.246;2023-03-14T16:46:01;7.10;95.70